createdAt,value
2022-09-25T00:01:58.482Z,81.76
2022-09-25T00:04:28.270Z,81.54
2022-09-25T00:06:56.463Z,81.36
2022-09-25T00:09:24.581Z,80.69
2022-09-25T00:11:52.732Z,80.29
2022-09-25T00:14:20.882Z,79.86
2022-09-25T00:16:49.051Z,78.95
2022-09-25T00:19:40.355Z,78.93
2022-09-25T00:22:09.925Z,79.08
2022-09-25T00:24:38.157Z,79.33
2022-09-25T00:27:08.743Z,79.46
2022-09-25T00:29:37.463Z,79.91
2022-09-25T00:32:06.024Z,80.02
2022-09-25T00:34:34.231Z,80.74
2022-09-25T00:37:02.372Z,81.38
2022-09-25T00:39:32.360Z,81.49
2022-09-25T00:42:01.150Z,81.69
2022-09-25T00:44:56.545Z,81.96
2022-09-25T00:47:52.500Z,83.04
2022-09-25T00:50:28.070Z,83.56
2022-09-25T00:53:04.066Z,83.68
2022-09-25T00:55:35.316Z,84.14
2022-09-25T00:58:04.976Z,84.02
2022-09-25T01:00:34.175Z,84.24
2022-09-25T01:03:05.215Z,84.34
2022-09-25T01:05:36.834Z,85.00
2022-09-25T01:08:07.175Z,85.08
2022-09-25T01:10:37.844Z,85.29
2022-09-25T01:13:06.660Z,85.51
2022-09-25T01:15:41.487Z,85.57
2022-09-25T01:18:20.041Z,85.68
2022-09-25T01:21:14.899Z,86.10
2022-09-25T01:24:10.707Z,86.66
2022-09-25T01:27:03.896Z,87.35
2022-09-25T01:29:41.235Z,87.50
2022-09-25T01:32:20.720Z,87.85
2022-09-25T01:34:57.538Z,88.49
2022-09-25T01:37:31.036Z,89.24
2022-09-25T01:40:07.823Z,89.63
2022-09-25T01:42:41.118Z,89.98
2022-09-25T01:45:17.494Z,89.90
2022-09-25T01:47:50.338Z,90.32
2022-09-25T01:50:25.393Z,90.98
2022-09-25T01:52:57.059Z,90.81
2022-09-25T01:55:31.673Z,91.11
2022-09-25T01:58:09.299Z,90.99
2022-09-25T02:00:41.696Z,91.13
2022-09-25T02:03:17.267Z,91.24
2022-09-25T02:05:47.839Z,91.20
2022-09-25T02:08:22.350Z,90.99
2022-09-25T02:10:56.915Z,90.60
2022-09-25T02:13:34.210Z,90.56
2022-09-25T02:16:08.859Z,91.63
2022-09-25T02:18:54.540Z,92.05
2022-09-25T02:21:30.369Z,91.92
2022-09-25T02:24:07.439Z,92.00
2022-09-25T02:26:37.765Z,92.03
2022-09-25T02:29:08.265Z,92.39
2022-09-25T02:31:40.579Z,92.59
2022-09-25T02:34:14.561Z,92.58
2022-09-25T02:36:45.023Z,92.12
2022-09-25T02:39:16.875Z,91.95
2022-09-25T02:42:20.388Z,92.23
2022-09-25T02:45:06.760Z,92.54
2022-09-25T02:47:43.707Z,92.45
2022-09-25T02:50:21.883Z,91.86
2022-09-25T02:52:58.124Z,91.58
2022-09-25T02:55:34.178Z,92.50
2022-09-25T02:58:08.923Z,94.11
2022-09-25T03:00:39.007Z,95.55
2022-09-25T03:03:13.647Z,96.71
2022-09-25T03:05:42.910Z,97.11
2022-09-25T03:08:29.007Z,97.19
2022-09-25T03:10:59.408Z,97.72
2022-09-25T03:13:32.092Z,98.72
2022-09-25T03:16:03.919Z,98.76
2022-09-25T03:18:34.070Z,98.26
2022-09-25T03:21:04.307Z,96.91
2022-09-25T03:23:32.654Z,97.61
2022-09-25T03:26:00.940Z,99.32
2022-09-25T03:28:29.093Z,100.00
2022-09-25T03:30:59.361Z,100.00
2022-09-25T03:33:28.910Z,100.00
2022-09-25T03:36:11.178Z,98.74
2022-09-25T03:38:41.349Z,97.17
2022-09-25T03:41:11.155Z,97.28
2022-09-25T03:43:40.964Z,98.46
2022-09-25T03:46:11.215Z,97.95
2022-09-25T03:48:40.320Z,97.32
2022-09-25T03:51:10.811Z,96.80
2022-09-25T03:53:39.290Z,96.29
2022-09-25T03:56:09.681Z,96.10
2022-09-25T03:58:37.875Z,96.51
2022-09-25T04:01:07.610Z,97.99
2022-09-25T04:03:36.203Z,98.84
2022-09-25T04:06:06.238Z,99.95
2022-09-25T04:08:37.501Z,100.00
2022-09-25T04:11:06.348Z,100.00
2022-09-25T04:13:36.691Z,100.00
2022-09-25T04:16:08.419Z,100.00
2022-09-25T04:18:37.642Z,100.00
2022-09-25T04:21:08.475Z,100.00
2022-09-25T04:23:39.155Z,100.00
2022-09-25T04:26:07.975Z,100.00
2022-09-25T04:28:37.246Z,100.00
2022-09-25T04:31:05.845Z,99.46
2022-09-25T04:33:48.424Z,98.85
2022-09-25T04:36:18.239Z,98.54
2022-09-25T04:38:48.077Z,98.18
2022-09-25T04:41:17.713Z,97.85
2022-09-25T04:43:45.916Z,97.23
2022-09-25T04:46:21.090Z,97.40
2022-09-25T04:48:50.153Z,96.97
2022-09-25T04:51:18.328Z,96.53
2022-09-25T04:53:47.836Z,95.76
2022-09-25T04:56:17.096Z,93.93
2022-09-25T04:58:47.644Z,91.30
2022-09-25T05:01:17.599Z,89.15
2022-09-25T05:03:48.706Z,83.37
2022-09-25T05:06:18.065Z,74.47
2022-09-25T05:08:49.504Z,68.51
2022-09-25T05:11:18.100Z,65.74
2022-09-25T05:13:46.787Z,62.35
2022-09-25T05:16:15.488Z,59.23
2022-09-25T05:18:43.800Z,57.97
2022-09-25T05:21:12.048Z,56.59
2022-09-25T05:23:40.199Z,59.85
2022-09-25T05:26:11.238Z,65.56
2022-09-25T05:28:39.471Z,64.43
2022-09-25T05:31:08.240Z,61.63
2022-09-25T05:33:37.336Z,62.49
2022-09-25T05:36:07.408Z,62.31
2022-09-25T05:38:37.113Z,59.61
2022-09-25T05:41:06.823Z,60.27
2022-09-25T05:43:41.659Z,60.99
2022-09-25T05:46:10.806Z,59.71
2022-09-25T05:48:39.164Z,57.22
2022-09-25T05:51:07.979Z,53.85
2022-09-25T05:53:36.216Z,48.16
2022-09-25T05:56:06.402Z,46.75
2022-09-25T05:58:36.794Z,47.40
2022-09-25T06:01:06.864Z,44.82
2022-09-25T06:03:36.277Z,44.06
2022-09-25T06:06:04.577Z,42.46
2022-09-25T06:08:32.814Z,43.64
2022-09-25T06:11:02.513Z,42.52
2022-09-25T06:13:34.960Z,42.04
2022-09-25T06:16:15.423Z,42.19
2022-09-25T06:18:43.550Z,40.81
2022-09-25T06:21:11.657Z,40.11
2022-09-25T06:23:39.924Z,39.47
2022-09-25T06:26:09.496Z,39.75
2022-09-25T06:28:38.517Z,39.15
2022-09-25T06:31:08.535Z,38.94
2022-09-25T06:33:36.699Z,39.27
2022-09-25T06:36:07.224Z,40.47
2022-09-25T06:38:35.549Z,40.83
2022-09-25T06:41:03.769Z,40.63
2022-09-25T06:43:31.969Z,42.75
2022-09-25T06:46:04.068Z,43.75
2022-09-25T06:48:33.783Z,45.79
2022-09-25T06:51:02.347Z,47.22
2022-09-25T06:53:30.697Z,47.49
2022-09-25T06:56:00.233Z,49.28
2022-09-25T06:58:30.357Z,51.02
2022-09-25T07:00:59.077Z,51.54
2022-09-25T07:03:48.473Z,52.38
2022-09-25T07:06:19.720Z,51.17
2022-09-25T07:08:49.196Z,52.01
2022-09-25T07:11:19.822Z,52.87
2022-09-25T07:13:55.300Z,52.39
2022-09-25T07:16:26.258Z,52.92
2022-09-25T07:18:55.721Z,53.53
2022-09-25T07:21:27.990Z,53.48
2022-09-25T07:23:58.598Z,53.79
2022-09-25T07:26:28.479Z,53.27
2022-09-25T07:28:58.637Z,53.07
2022-09-25T07:31:29.654Z,52.09
2022-09-25T07:34:00.357Z,52.73
2022-09-25T07:36:30.706Z,53.63
2022-09-25T07:38:59.084Z,53.88
2022-09-25T07:41:27.375Z,53.88
2022-09-25T07:44:40.030Z,54.00
2022-09-25T07:46:46.364Z,55.06
2022-09-25T07:49:15.384Z,55.22
2022-09-25T07:51:45.002Z,54.48
2022-09-25T07:54:13.246Z,54.21
2022-09-25T07:56:41.554Z,53.71
2022-09-25T07:59:09.945Z,53.39
2022-09-25T08:01:43.322Z,53.31
2022-09-25T08:04:13.279Z,53.37
2022-09-25T08:06:41.526Z,52.83
2022-09-25T08:09:12.369Z,52.46
2022-09-25T08:11:40.605Z,52.98
2022-09-25T08:14:08.805Z,52.57
2022-09-25T08:16:37.066Z,52.75
2022-09-25T08:19:05.294Z,53.47
2022-09-25T08:21:33.443Z,53.55
2022-09-25T08:24:01.912Z,53.13
2022-09-25T08:26:32.086Z,53.35
2022-09-25T08:29:00.540Z,51.92
2022-09-25T08:31:29.247Z,52.26
2022-09-25T08:34:06.151Z,52.87
2022-09-25T08:36:43.570Z,53.44
2022-09-25T08:39:12.277Z,53.88
2022-09-25T08:41:48.985Z,53.83
2022-09-25T08:44:25.633Z,54.02
2022-09-25T08:47:19.433Z,55.06
2022-09-25T08:49:57.705Z,55.81
2022-09-25T08:52:26.139Z,55.64
2022-09-25T08:54:54.629Z,54.85
2022-09-25T08:57:34.989Z,55.92
2022-09-25T09:00:07.748Z,55.94
2022-09-25T09:02:42.683Z,56.24
2022-09-25T09:05:18.883Z,56.33
2022-09-25T09:07:55.114Z,57.58
2022-09-25T09:10:33.534Z,57.48
2022-09-25T09:13:16.547Z,57.13
2022-09-25T09:15:48.062Z,56.42
2022-09-25T09:18:22.649Z,54.07
2022-09-25T09:20:53.915Z,56.43
2022-09-25T09:23:24.397Z,57.46
2022-09-25T09:26:07.089Z,57.86
2022-09-25T09:29:01.444Z,57.61
2022-09-25T09:31:37.535Z,59.11
2022-09-25T09:34:53.808Z,60.80
2022-09-25T09:37:31.731Z,63.04
2022-09-25T09:40:17.029Z,62.49
2022-09-25T09:42:56.217Z,65.01
2022-09-25T09:45:33.262Z,66.00
2022-09-25T09:48:16.554Z,66.92
2022-09-25T09:50:52.595Z,66.24
2022-09-25T09:53:35.347Z,67.02
2022-09-25T09:56:09.381Z,64.17
2022-09-25T09:58:54.514Z,62.81
2022-09-25T10:01:40.762Z,63.17
2022-09-25T10:04:12.642Z,63.97
2022-09-25T10:06:45.366Z,63.85
2022-09-25T10:09:16.570Z,64.62
2022-09-25T10:11:46.957Z,63.71
2022-09-25T10:14:21.408Z,62.92
2022-09-25T10:16:53.356Z,62.85
2022-09-25T10:19:25.319Z,61.92
2022-09-25T10:21:56.508Z,60.89
2022-09-25T10:24:51.477Z,62.72
2022-09-25T10:27:28.842Z,62.47
2022-09-25T10:30:08.217Z,61.97
2022-09-25T10:32:47.956Z,60.41
2022-09-25T10:35:18.406Z,61.97
2022-09-25T10:37:50.319Z,60.91
2022-09-25T10:40:28.468Z,61.88
2022-09-25T10:43:15.519Z,59.95
2022-09-25T10:45:44.057Z,60.13
2022-09-25T10:48:50.764Z,58.44
2022-09-25T10:51:21.442Z,59.28
2022-09-25T10:53:50.970Z,57.69
2022-09-25T10:56:27.854Z,53.48
2022-09-25T10:58:59.808Z,53.08
2022-09-25T11:01:35.564Z,52.01
2022-09-25T11:04:16.019Z,51.53
2022-09-25T11:06:48.323Z,52.60
2022-09-25T11:09:19.832Z,53.47
2022-09-25T11:11:49.934Z,52.31
2022-09-25T11:14:28.763Z,52.96
2022-09-25T11:16:57.663Z,52.45
2022-09-25T11:19:30.160Z,54.08
2022-09-25T11:22:16.779Z,54.32
2022-09-25T11:25:00.190Z,55.27
2022-09-25T11:27:36.211Z,53.04
2022-09-25T11:30:10.180Z,53.73
2022-09-25T11:32:51.636Z,54.82
2022-09-25T11:35:41.107Z,54.48
2022-09-25T11:38:18.951Z,53.68
2022-09-25T11:41:17.138Z,55.16
2022-09-25T11:43:58.025Z,55.32
2022-09-25T11:46:35.520Z,56.04
2022-09-25T11:49:16.497Z,56.33
2022-09-25T11:52:24.164Z,58.42
2022-09-25T11:55:14.954Z,57.57
2022-09-25T11:57:54.523Z,58.54
2022-09-25T12:00:28.692Z,61.35
2022-09-25T12:03:24.497Z,59.26
2022-09-25T12:06:14.361Z,60.45
2022-09-25T12:08:57.295Z,59.83
2022-09-25T12:11:38.064Z,61.92
2022-09-25T12:14:14.658Z,61.82
2022-09-25T12:16:52.013Z,62.48
2022-09-25T12:19:33.425Z,63.41
2022-09-25T12:22:09.676Z,64.12
2022-09-25T12:24:49.615Z,63.70
2022-09-25T12:27:32.785Z,64.87
2022-09-25T12:30:19.990Z,64.90
2022-09-25T12:33:09.423Z,64.31
2022-09-25T12:35:44.332Z,64.34
2022-09-25T12:38:24.352Z,64.12
2022-09-25T12:40:56.852Z,65.47
2022-09-25T12:43:33.668Z,65.33
2022-09-25T12:46:10.441Z,64.72
2022-09-25T12:48:44.760Z,64.96
2022-09-25T12:51:19.147Z,66.37
2022-09-25T12:53:51.260Z,67.88
2022-09-25T12:56:24.883Z,68.18
2022-09-25T12:59:07.581Z,68.79
2022-09-25T13:01:46.033Z,70.17
2022-09-25T13:04:34.043Z,71.94
2022-09-25T13:07:10.193Z,72.24
2022-09-25T13:09:43.544Z,71.40
2022-09-25T13:12:19.160Z,70.99
2022-09-25T13:14:54.236Z,71.06
2022-09-25T13:17:23.029Z,69.54
2022-09-25T13:19:51.276Z,65.74
2022-09-25T13:22:27.574Z,63.96
2022-09-25T13:25:02.278Z,64.58
2022-09-25T13:27:40.294Z,65.17
2022-09-25T13:30:23.867Z,66.54
2022-09-25T13:32:54.997Z,67.74
2022-09-25T13:35:25.110Z,66.46
2022-09-25T13:37:56.328Z,66.80
2022-09-25T13:40:45.218Z,65.53
2022-09-25T13:43:22.549Z,64.80
2022-09-25T13:46:25.046Z,66.22
2022-09-25T13:48:55.556Z,65.84
2022-09-25T13:51:36.836Z,66.66
2022-09-25T13:54:25.617Z,66.42
2022-09-25T13:56:54.431Z,67.02
2022-09-25T13:59:37.699Z,66.07
2022-09-25T14:02:42.167Z,67.33
2022-09-25T14:05:17.376Z,66.92
2022-09-25T14:07:46.989Z,67.31
2022-09-25T14:10:15.646Z,67.49
2022-09-25T14:12:46.322Z,67.88
2022-09-25T14:15:28.631Z,67.65
2022-09-25T14:18:00.990Z,68.48
2022-09-25T14:20:37.478Z,69.39
2022-09-25T14:23:12.484Z,69.61
2022-09-25T14:25:44.662Z,69.71
2022-09-25T14:28:21.188Z,69.33
2022-09-25T14:30:54.561Z,69.16
2022-09-25T14:33:38.978Z,69.19
2022-09-25T14:36:19.861Z,68.36
2022-09-25T14:39:01.526Z,67.70
2022-09-25T14:41:56.674Z,68.07
2022-09-25T14:44:45.515Z,69.12
2022-09-25T14:47:17.801Z,70.05
2022-09-25T14:49:51.857Z,71.27
2022-09-25T14:52:25.010Z,72.02
2022-09-25T14:54:57.085Z,72.42
2022-09-25T14:57:29.467Z,73.59
2022-09-25T15:00:01.688Z,74.31
2022-09-25T15:02:34.252Z,74.72
2022-09-25T15:08:03.438Z,76.77
2022-09-25T15:10:33.641Z,77.79
2022-09-25T15:13:15.983Z,77.67
2022-09-25T15:16:06.890Z,76.68
2022-09-25T15:18:38.155Z,77.02
2022-09-25T15:21:09.617Z,77.66
2022-09-25T15:23:39.325Z,77.86
2022-09-25T15:26:07.789Z,77.90
2022-09-25T15:28:41.137Z,78.36
2022-09-25T15:31:09.619Z,78.91
2022-09-25T15:33:39.855Z,77.92
2022-09-25T15:36:20.325Z,78.20
2022-09-25T15:38:55.896Z,78.60
2022-09-25T15:41:24.890Z,78.89
2022-09-25T15:43:53.574Z,79.63
2022-09-25T15:46:40.313Z,80.78
2022-09-25T15:49:08.733Z,80.92
2022-09-25T15:51:38.298Z,81.46
2022-09-25T15:54:41.575Z,81.85
2022-09-25T15:57:14.020Z,82.18
2022-09-25T15:59:59.150Z,82.75
2022-09-25T16:02:48.760Z,82.82
2022-09-25T16:05:24.901Z,82.41
2022-09-25T16:07:56.224Z,82.42
2022-09-25T16:10:34.539Z,81.45
2022-09-25T16:13:03.420Z,81.98
2022-09-25T16:15:46.888Z,83.34
2022-09-25T16:18:41.094Z,83.99
2022-09-25T16:21:19.674Z,84.77
2022-09-25T16:23:56.106Z,83.24
2022-09-25T16:26:29.975Z,82.74
2022-09-25T16:29:05.888Z,82.11
2022-09-25T16:31:36.589Z,79.69
2022-09-25T16:34:06.129Z,80.25
2022-09-25T16:36:45.198Z,80.93
2022-09-25T16:39:24.130Z,81.82
2022-09-25T16:41:54.075Z,81.02
2022-09-25T16:44:24.449Z,80.91
2022-09-25T16:47:24.077Z,81.60
2022-09-25T16:49:52.274Z,82.25
2022-09-25T16:52:25.963Z,81.19
2022-09-25T16:54:57.033Z,80.98
2022-09-25T16:57:29.327Z,80.88
2022-09-25T16:59:57.801Z,81.30
2022-09-25T17:02:36.031Z,81.66
2022-09-25T17:05:06.568Z,82.70
2022-09-25T17:07:34.946Z,82.86
2022-09-25T17:10:03.161Z,82.70
2022-09-25T17:12:33.011Z,83.31
2022-09-25T17:15:01.331Z,83.59
2022-09-25T17:17:31.166Z,83.85
2022-09-25T17:19:59.451Z,83.74
2022-09-25T17:22:30.409Z,83.80
2022-09-25T17:25:02.826Z,84.15
2022-09-25T17:27:32.453Z,84.57
2022-09-25T17:30:01.392Z,84.62
2022-09-25T17:32:31.407Z,84.17
2022-09-25T17:35:02.184Z,83.20
2022-09-25T17:37:30.509Z,82.70
2022-09-25T17:39:59.235Z,81.58
2022-09-25T17:42:27.816Z,80.74
2022-09-25T17:44:57.643Z,80.47
2022-09-25T17:47:26.564Z,79.64
2022-09-25T17:49:54.777Z,80.17
2022-09-25T17:52:22.911Z,80.87
2022-09-25T17:54:50.993Z,81.46
2022-09-25T17:57:19.287Z,82.23
2022-09-25T17:59:47.427Z,83.47
2022-09-25T18:02:18.162Z,84.02
2022-09-25T18:04:46.305Z,84.67
2022-09-25T18:07:15.354Z,84.40
2022-09-25T18:09:43.514Z,84.60
2022-09-25T18:12:11.622Z,84.93
2022-09-25T18:14:39.755Z,85.11
2022-09-25T18:17:07.860Z,85.02
2022-09-25T18:19:54.849Z,85.54
2022-09-25T18:22:25.687Z,86.41
2022-09-25T18:24:56.962Z,86.62
2022-09-25T18:27:27.017Z,86.41
2022-09-25T18:29:55.228Z,86.21
2022-09-25T18:32:24.257Z,86.07
2022-09-25T18:34:54.172Z,85.02
2022-09-25T18:37:22.383Z,84.31
2022-09-25T18:39:51.245Z,83.09
2022-09-25T18:42:19.972Z,83.17
2022-09-25T18:44:48.817Z,83.13
2022-09-25T18:47:16.897Z,83.00
2022-09-25T18:49:45.458Z,83.56
2022-09-25T18:52:15.914Z,83.88
2022-09-25T18:54:44.098Z,84.38
2022-09-25T18:57:13.612Z,84.77
2022-09-25T18:59:42.112Z,84.81
2022-09-25T19:02:20.664Z,84.47
2022-09-25T19:04:49.630Z,84.34
2022-09-25T19:07:19.668Z,83.92
2022-09-25T19:09:47.793Z,84.48
2022-09-25T19:12:17.159Z,83.81
2022-09-25T19:14:45.651Z,83.86
2022-09-25T19:17:14.648Z,84.08
2022-09-25T19:19:44.016Z,85.09
2022-09-25T19:22:17.986Z,86.12
2022-09-25T19:24:48.378Z,86.52
2022-09-25T19:27:18.235Z,86.55
2022-09-25T19:29:46.987Z,86.51
2022-09-25T19:32:17.834Z,86.38
2022-09-25T19:34:46.342Z,86.73
2022-09-25T19:37:15.388Z,87.73
2022-09-25T19:40:01.054Z,88.33
2022-09-25T19:42:33.714Z,89.14
2022-09-25T19:45:02.315Z,90.23
2022-09-25T19:47:30.397Z,91.07
2022-09-25T19:49:58.546Z,92.02
2022-09-25T19:52:26.697Z,92.38
2022-09-25T19:54:54.827Z,94.08
2022-09-25T19:57:22.977Z,94.34
2022-09-25T19:59:52.910Z,94.77
2022-09-25T20:02:21.730Z,94.96
2022-09-25T20:04:50.156Z,95.25
2022-09-25T20:07:19.088Z,96.06
2022-09-25T20:09:47.617Z,95.81
2022-09-25T20:12:15.958Z,95.93
2022-09-25T20:14:44.613Z,96.75
2022-09-25T20:17:14.452Z,97.06
2022-09-25T20:19:43.530Z,97.55
2022-09-25T20:22:11.811Z,97.07
2022-09-25T20:24:40.072Z,97.52
2022-09-25T20:27:08.477Z,98.11
2022-09-25T20:29:36.714Z,98.40
2022-09-25T20:32:05.368Z,98.00
2022-09-25T20:34:34.938Z,98.09
2022-09-25T20:37:03.801Z,98.16
2022-09-25T20:39:31.931Z,98.98
2022-09-25T20:42:00.170Z,99.91
2022-09-25T20:44:28.289Z,100.00
2022-09-25T20:46:56.462Z,100.00
2022-09-25T20:49:49.529Z,100.00
2022-09-25T20:52:17.646Z,100.00
2022-09-25T20:54:45.794Z,100.00
2022-09-25T20:57:14.090Z,100.00
2022-09-25T20:59:43.662Z,100.00
2022-09-25T21:02:12.248Z,100.00
2022-09-25T21:04:40.465Z,100.00
2022-09-25T21:07:15.880Z,100.00
2022-09-25T21:09:45.337Z,100.00
2022-09-25T21:12:14.106Z,100.00
2022-09-25T21:14:42.274Z,100.00
2022-09-25T21:17:10.737Z,100.00
2022-09-25T21:19:39.806Z,100.00
2022-09-25T21:22:07.945Z,100.00
2022-09-25T21:24:37.459Z,100.00
2022-09-25T21:27:05.607Z,100.00
2022-09-25T21:29:33.907Z,100.00
2022-09-25T21:32:02.743Z,100.00
2022-09-25T21:34:31.507Z,100.00
2022-09-25T21:36:59.667Z,100.00
2022-09-25T21:39:27.860Z,100.00
2022-09-25T21:41:57.574Z,100.00
2022-09-25T21:44:26.934Z,100.00
2022-09-25T21:46:55.143Z,100.00
2022-09-25T21:49:23.750Z,100.00
2022-09-25T21:51:52.510Z,100.00
2022-09-25T21:54:20.802Z,100.00
2022-09-25T21:56:50.140Z,100.00
2022-09-25T21:59:19.679Z,100.00
2022-09-25T22:01:47.849Z,100.00
2022-09-25T22:04:16.719Z,100.00
2022-09-25T22:06:47.183Z,100.00
2022-09-25T22:09:17.702Z,100.00
2022-09-25T22:11:48.066Z,100.00
2022-09-25T22:14:16.942Z,100.00
2022-09-25T22:16:49.350Z,100.00
2022-09-25T22:19:20.831Z,100.00
2022-09-25T22:21:50.918Z,100.00
2022-09-25T22:24:20.056Z,100.00
2022-09-25T22:26:49.504Z,100.00
2022-09-25T22:29:17.659Z,100.00
2022-09-25T22:31:48.113Z,100.00
2022-09-25T22:34:20.280Z,100.00
2022-09-25T22:36:50.812Z,100.00
2022-09-25T22:39:21.441Z,100.00
2022-09-25T22:41:50.920Z,100.00
2022-09-25T22:44:19.787Z,100.00
2022-09-25T22:46:49.617Z,100.00
2022-09-25T22:49:17.789Z,100.00
2022-09-25T22:51:46.118Z,100.00
2022-09-25T22:54:15.337Z,100.00
2022-09-25T22:56:44.648Z,100.00
2022-09-25T22:59:16.250Z,100.00
2022-09-25T23:01:46.648Z,100.00
2022-09-25T23:04:17.983Z,100.00
2022-09-25T23:06:46.569Z,100.00
2022-09-25T23:09:16.603Z,100.00
2022-09-25T23:11:44.924Z,100.00
2022-09-25T23:14:17.076Z,100.00
2022-09-25T23:16:46.461Z,100.00
2022-09-25T23:19:16.764Z,100.00
2022-09-25T23:21:45.145Z,100.00
2022-09-25T23:24:15.055Z,100.00
2022-09-25T23:26:43.998Z,100.00
2022-09-25T23:29:13.776Z,100.00
2022-09-25T23:31:42.816Z,100.00
2022-09-25T23:34:11.492Z,100.00
2022-09-25T23:36:41.499Z,100.00
2022-09-25T23:39:11.875Z,100.00
2022-09-25T23:41:41.213Z,100.00
2022-09-25T23:44:11.229Z,100.00
2022-09-25T23:46:41.732Z,100.00
2022-09-25T23:49:10.955Z,100.00
2022-09-25T23:51:40.763Z,100.00
2022-09-25T23:54:09.259Z,100.00
2022-09-25T23:56:37.661Z,100.00
2022-09-25T23:59:06.487Z,100.00
